sensor_id;sensor_type;location;lat;lon;timestamp;P1;durP1;ratioP1;P2;durP2;ratioP2
46110;SDS011;31849;55.992;37.252;2022-12-07T00:04:28;6.77;;;2.80;;
46110;SDS011;31849;55.992;37.252;2022-12-07T00:09:31;7.03;;;2.43;;
46110;SDS011;31849;55.992;37.252;2022-12-07T00:14:35;6.57;;;3.07;;
46110;SDS011;31849;55.992;37.252;2022-12-07T00:19:40;10.30;;;4.10;;
46110;SDS011;31849;55.992;37.252;2022-12-07T00:24:43;8.80;;;3.63;;
46110;SDS011;31849;55.992;37.252;2022-12-07T00:29:47;9.07;;;3.90;;
46110;SDS011;31849;55.992;37.252;2022-12-07T00:34:52;8.57;;;3.43;;
46110;SDS011;31849;55.992;37.252;2022-12-07T00:39:55;7.30;;;3.50;;
46110;SDS011;31849;55.992;37.252;2022-12-07T00:44:59;7.22;;;3.40;;
46110;SDS011;31849;55.992;37.252;2022-12-07T00:50:05;6.43;;;2.67;;
46110;SDS011;31849;55.992;37.252;2022-12-07T00:55:10;2.70;;;1.70;;
46110;SDS011;31849;55.992;37.252;2022-12-07T01:00:14;4.87;;;2.60;;
46110;SDS011;31849;55.992;37.252;2022-12-07T01:05:19;6.32;;;2.88;;
46110;SDS011;31849;55.992;37.252;2022-12-07T01:10:22;6.67;;;3.73;;
46110;SDS011;31849;55.992;37.252;2022-12-07T01:15:26;5.43;;;2.63;;
46110;SDS011;31849;55.992;37.252;2022-12-07T01:20:31;6.30;;;3.00;;
46110;SDS011;31849;55.992;37.252;2022-12-07T01:25:34;4.67;;;2.50;;
46110;SDS011;31849;55.992;37.252;2022-12-07T01:30:38;5.47;;;2.50;;
46110;SDS011;31849;55.992;37.252;2022-12-07T01:35:43;11.57;;;2.50;;
46110;SDS011;31849;55.992;37.252;2022-12-07T01:40:53;5.17;;;2.37;;
46110;SDS011;31849;55.992;37.252;2022-12-07T01:45:57;6.90;;;2.30;;
46110;SDS011;31849;55.992;37.252;2022-12-07T01:51:03;5.78;;;2.72;;
46110;SDS011;31849;55.992;37.252;2022-12-07T01:56:10;7.30;;;2.87;;
46110;SDS011;31849;55.992;37.252;2022-12-07T02:01:19;5.17;;;2.73;;
46110;SDS011;31849;55.992;37.252;2022-12-07T02:06:25;5.45;;;2.22;;
46110;SDS011;31849;55.992;37.252;2022-12-07T02:11:29;6.20;;;2.53;;
46110;SDS011;31849;55.992;37.252;2022-12-07T02:16:34;7.40;;;2.83;;
46110;SDS011;31849;55.992;37.252;2022-12-07T02:21:48;7.60;;;4.20;;
46110;SDS011;31849;55.992;37.252;2022-12-07T02:27:02;9.13;;;4.63;;
46110;SDS011;31849;55.992;37.252;2022-12-07T02:32:23;8.82;;;3.55;;
46110;SDS011;31849;55.992;37.252;2022-12-07T02:37:33;6.63;;;3.33;;
46110;SDS011;31849;55.992;37.252;2022-12-07T02:42:43;8.13;;;3.20;;
46110;SDS011;31849;55.992;37.252;2022-12-07T02:47:51;8.17;;;2.90;;
46110;SDS011;31849;55.992;37.252;2022-12-07T02:53:00;9.47;;;2.67;;
46110;SDS011;31849;55.992;37.252;2022-12-07T02:58:12;8.13;;;2.73;;
46110;SDS011;31849;55.992;37.252;2022-12-07T03:03:27;7.83;;;2.93;;
46110;SDS011;31849;55.992;37.252;2022-12-07T03:08:47;8.27;;;3.27;;
46110;SDS011;31849;55.992;37.252;2022-12-07T03:13:58;13.05;;;3.17;;
46110;SDS011;31849;55.992;37.252;2022-12-07T03:19:08;6.13;;;3.20;;
46110;SDS011;31849;55.992;37.252;2022-12-07T03:24:17;8.87;;;2.93;;
46110;SDS011;31849;55.992;37.252;2022-12-07T03:29:24;6.87;;;3.20;;
46110;SDS011;31849;55.992;37.252;2022-12-07T03:34:32;5.83;;;2.87;;
46110;SDS011;31849;55.992;37.252;2022-12-07T03:39:39;8.40;;;3.40;;
46110;SDS011;31849;55.992;37.252;2022-12-07T03:44:48;7.77;;;3.10;;
46110;SDS011;31849;55.992;37.252;2022-12-07T03:55:02;7.60;;;3.50;;
46110;SDS011;31849;55.992;37.252;2022-12-07T04:00:11;7.13;;;2.90;;
46110;SDS011;31849;55.992;37.252;2022-12-07T04:05:17;10.60;;;4.20;;
46110;SDS011;31849;55.992;37.252;2022-12-07T04:10:21;11.77;;;3.80;;
46110;SDS011;31849;55.992;37.252;2022-12-07T04:15:24;7.87;;;3.33;;
46110;SDS011;31849;55.992;37.252;2022-12-07T04:20:29;10.10;;;3.87;;
46110;SDS011;31849;55.992;37.252;2022-12-07T04:25:32;8.87;;;3.07;;
46110;SDS011;31849;55.992;37.252;2022-12-07T04:30:36;10.30;;;3.83;;
46110;SDS011;31849;55.992;37.252;2022-12-07T04:35:41;8.47;;;3.70;;
46110;SDS011;31849;55.992;37.252;2022-12-07T04:40:45;9.40;;;4.13;;
46110;SDS011;31849;55.992;37.252;2022-12-07T04:45:49;10.13;;;4.73;;
46110;SDS011;31849;55.992;37.252;2022-12-07T04:50:54;9.68;;;4.38;;
46110;SDS011;31849;55.992;37.252;2022-12-07T04:55:58;12.13;;;4.73;;
46110;SDS011;31849;55.992;37.252;2022-12-07T05:06:08;8.97;;;3.60;;
46110;SDS011;31849;55.992;37.252;2022-12-07T05:11:14;16.93;;;4.57;;
46110;SDS011;31849;55.992;37.252;2022-12-07T05:16:32;9.60;;;4.13;;
46110;SDS011;31849;55.992;37.252;2022-12-07T05:21:37;12.93;;;4.32;;
46110;SDS011;31849;55.992;37.252;2022-12-07T05:26:41;19.30;;;7.37;;
46110;SDS011;31849;55.992;37.252;2022-12-07T05:31:46;28.17;;;9.15;;
46110;SDS011;31849;55.992;37.252;2022-12-07T05:36:51;18.45;;;7.05;;
46110;SDS011;31849;55.992;37.252;2022-12-07T05:41:54;11.20;;;4.50;;
46110;SDS011;31849;55.992;37.252;2022-12-07T05:47:16;15.97;;;5.20;;
46110;SDS011;31849;55.992;37.252;2022-12-07T05:52:21;19.37;;;7.80;;
46110;SDS011;31849;55.992;37.252;2022-12-07T05:57:25;12.57;;;5.30;;
46110;SDS011;31849;55.992;37.252;2022-12-07T06:02:28;14.60;;;4.77;;
46110;SDS011;31849;55.992;37.252;2022-12-07T06:07:33;9.67;;;3.80;;
46110;SDS011;31849;55.992;37.252;2022-12-07T06:12:37;12.77;;;4.80;;
46110;SDS011;31849;55.992;37.252;2022-12-07T06:17:44;8.30;;;3.47;;
46110;SDS011;31849;55.992;37.252;2022-12-07T06:23:01;9.57;;;4.47;;
46110;SDS011;31849;55.992;37.252;2022-12-07T06:28:04;14.93;;;5.40;;
46110;SDS011;31849;55.992;37.252;2022-12-07T06:33:08;14.37;;;5.97;;
46110;SDS011;31849;55.992;37.252;2022-12-07T06:38:13;13.67;;;5.37;;
46110;SDS011;31849;55.992;37.252;2022-12-07T06:43:16;15.53;;;5.70;;
46110;SDS011;31849;55.992;37.252;2022-12-07T06:48:20;22.50;;;6.93;;
46110;SDS011;31849;55.992;37.252;2022-12-07T06:53:25;11.50;;;5.40;;
46110;SDS011;31849;55.992;37.252;2022-12-07T07:03:32;12.35;;;4.65;;
46110;SDS011;31849;55.992;37.252;2022-12-07T07:08:37;17.33;;;8.13;;
46110;SDS011;31849;55.992;37.252;2022-12-07T07:13:41;12.63;;;5.30;;
46110;SDS011;31849;55.992;37.252;2022-12-07T07:18:45;10.15;;;5.45;;
46110;SDS011;31849;55.992;37.252;2022-12-07T07:23:50;10.75;;;4.68;;
46110;SDS011;31849;55.992;37.252;2022-12-07T07:28:53;11.48;;;6.32;;
46110;SDS011;31849;55.992;37.252;2022-12-07T07:33:57;13.20;;;6.07;;
46110;SDS011;31849;55.992;37.252;2022-12-07T07:39:02;20.20;;;8.07;;
46110;SDS011;31849;55.992;37.252;2022-12-07T07:44:07;15.75;;;8.93;;
46110;SDS011;31849;55.992;37.252;2022-12-07T07:49:10;11.43;;;6.03;;
46110;SDS011;31849;55.992;37.252;2022-12-07T07:54:15;9.13;;;5.38;;
46110;SDS011;31849;55.992;37.252;2022-12-07T08:04:22;11.35;;;5.90;;
46110;SDS011;31849;55.992;37.252;2022-12-07T08:09:27;13.48;;;7.78;;
46110;SDS011;31849;55.992;37.252;2022-12-07T08:14:31;7.93;;;4.65;;
46110;SDS011;31849;55.992;37.252;2022-12-07T08:19:35;8.63;;;5.30;;
46110;SDS011;31849;55.992;37.252;2022-12-07T08:24:40;9.15;;;4.47;;
46110;SDS011;31849;55.992;37.252;2022-12-07T08:34:47;8.57;;;4.75;;
46110;SDS011;31849;55.992;37.252;2022-12-07T08:39:53;10.73;;;5.15;;
46110;SDS011;31849;55.992;37.252;2022-12-07T08:44:56;12.70;;;4.40;;
46110;SDS011;31849;55.992;37.252;2022-12-07T08:50:00;7.45;;;4.30;;
46110;SDS011;31849;55.992;37.252;2022-12-07T08:55:08;9.77;;;4.60;;
46110;SDS011;31849;55.992;37.252;2022-12-07T09:00:14;9.75;;;4.43;;
46110;SDS011;31849;55.992;37.252;2022-12-07T09:05:18;8.30;;;4.32;;
46110;SDS011;31849;55.992;37.252;2022-12-07T09:10:23;6.43;;;3.53;;
46110;SDS011;31849;55.992;37.252;2022-12-07T09:15:27;7.82;;;4.38;;
46110;SDS011;31849;55.992;37.252;2022-12-07T09:20:31;7.18;;;3.45;;
46110;SDS011;31849;55.992;37.252;2022-12-07T09:25:36;8.30;;;4.00;;
46110;SDS011;31849;55.992;37.252;2022-12-07T09:36:07;7.87;;;3.53;;
46110;SDS011;31849;55.992;37.252;2022-12-07T09:41:13;9.23;;;3.70;;
46110;SDS011;31849;55.992;37.252;2022-12-07T09:46:17;11.33;;;5.07;;
46110;SDS011;31849;55.992;37.252;2022-12-07T09:51:23;10.73;;;4.33;;
46110;SDS011;31849;55.992;37.252;2022-12-07T09:56:29;12.23;;;4.83;;
46110;SDS011;31849;55.992;37.252;2022-12-07T10:01:34;11.63;;;4.83;;
46110;SDS011;31849;55.992;37.252;2022-12-07T10:06:37;10.17;;;4.10;;
46110;SDS011;31849;55.992;37.252;2022-12-07T10:22:33;11.50;;;5.07;;
46110;SDS011;31849;55.992;37.252;2022-12-07T10:27:38;9.50;;;4.30;;
46110;SDS011;31849;55.992;37.252;2022-12-07T10:32:41;9.63;;;4.63;;
46110;SDS011;31849;55.992;37.252;2022-12-07T10:37:45;11.63;;;5.03;;
46110;SDS011;31849;55.992;37.252;2022-12-07T10:42:50;9.07;;;4.53;;
46110;SDS011;31849;55.992;37.252;2022-12-07T10:48:05;10.67;;;4.33;;
46110;SDS011;31849;55.992;37.252;2022-12-07T10:53:18;12.70;;;4.70;;
46110;SDS011;31849;55.992;37.252;2022-12-07T10:58:39;9.50;;;4.90;;
46110;SDS011;31849;55.992;37.252;2022-12-07T11:09:51;10.40;;;3.97;;
46110;SDS011;31849;55.992;37.252;2022-12-07T11:15:23;8.20;;;4.13;;
46110;SDS011;31849;55.992;37.252;2022-12-07T11:20:40;7.27;;;3.30;;
46110;SDS011;31849;55.992;37.252;2022-12-07T11:25:49;8.87;;;4.40;;
46110;SDS011;31849;55.992;37.252;2022-12-07T11:31:03;7.90;;;3.73;;
46110;SDS011;31849;55.992;37.252;2022-12-07T11:36:20;9.30;;;3.87;;
46110;SDS011;31849;55.992;37.252;2022-12-07T11:41:34;9.73;;;4.53;;
46110;SDS011;31849;55.992;37.252;2022-12-07T11:46:45;9.50;;;3.77;;
46110;SDS011;31849;55.992;37.252;2022-12-07T11:51:53;14.07;;;4.77;;
46110;SDS011;31849;55.992;37.252;2022-12-07T11:57:02;10.27;;;3.97;;
46110;SDS011;31849;55.992;37.252;2022-12-07T12:02:18;11.52;;;4.57;;
46110;SDS011;31849;55.992;37.252;2022-12-07T12:07:27;12.97;;;4.83;;
46110;SDS011;31849;55.992;37.252;2022-12-07T12:13:13;9.70;;;5.32;;
46110;SDS011;31849;55.992;37.252;2022-12-07T12:18:50;8.83;;;3.97;;
46110;SDS011;31849;55.992;37.252;2022-12-07T12:24:02;13.20;;;4.40;;
46110;SDS011;31849;55.992;37.252;2022-12-07T12:29:18;12.13;;;4.60;;
46110;SDS011;31849;55.992;37.252;2022-12-07T12:34:31;15.17;;;5.73;;
46110;SDS011;31849;55.992;37.252;2022-12-07T12:45:26;17.93;;;6.50;;
46110;SDS011;31849;55.992;37.252;2022-12-07T12:50:33;12.23;;;6.03;;
46110;SDS011;31849;55.992;37.252;2022-12-07T12:55:50;17.87;;;5.70;;
46110;SDS011;31849;55.992;37.252;2022-12-07T13:01:41;13.03;;;4.63;;
46110;SDS011;31849;55.992;37.252;2022-12-07T13:06:47;10.30;;;5.57;;
46110;SDS011;31849;55.992;37.252;2022-12-07T13:11:54;16.10;;;6.13;;
46110;SDS011;31849;55.992;37.252;2022-12-07T13:17:03;11.87;;;5.60;;
46110;SDS011;31849;55.992;37.252;2022-12-07T13:27:42;16.08;;;5.93;;
46110;SDS011;31849;55.992;37.252;2022-12-07T13:32:53;10.63;;;5.07;;
46110;SDS011;31849;55.992;37.252;2022-12-07T13:37:59;10.70;;;5.60;;
46110;SDS011;31849;55.992;37.252;2022-12-07T13:43:12;14.13;;;5.27;;
46110;SDS011;31849;55.992;37.252;2022-12-07T13:48:20;12.90;;;6.03;;
46110;SDS011;31849;55.992;37.252;2022-12-07T13:53:29;10.97;;;5.30;;
46110;SDS011;31849;55.992;37.252;2022-12-07T13:58:33;14.70;;;5.27;;
46110;SDS011;31849;55.992;37.252;2022-12-07T14:03:36;10.33;;;4.73;;
46110;SDS011;31849;55.992;37.252;2022-12-07T14:08:41;9.13;;;5.20;;
46110;SDS011;31849;55.992;37.252;2022-12-07T14:13:55;13.53;;;5.87;;
46110;SDS011;31849;55.992;37.252;2022-12-07T14:19:02;12.07;;;5.73;;
46110;SDS011;31849;55.992;37.252;2022-12-07T14:24:14;13.27;;;5.63;;
46110;SDS011;31849;55.992;37.252;2022-12-07T14:29:21;12.67;;;5.37;;
46110;SDS011;31849;55.992;37.252;2022-12-07T14:34:31;15.43;;;6.80;;
46110;SDS011;31849;55.992;37.252;2022-12-07T14:39:36;9.70;;;4.47;;
46110;SDS011;31849;55.992;37.252;2022-12-07T14:44:40;13.03;;;5.63;;
46110;SDS011;31849;55.992;37.252;2022-12-07T14:49:43;14.23;;;5.27;;
46110;SDS011;31849;55.992;37.252;2022-12-07T14:54:48;10.83;;;5.53;;
46110;SDS011;31849;55.992;37.252;2022-12-07T14:59:51;14.17;;;5.03;;
46110;SDS011;31849;55.992;37.252;2022-12-07T15:04:55;13.87;;;6.10;;
46110;SDS011;31849;55.992;37.252;2022-12-07T15:10:00;15.87;;;6.87;;
46110;SDS011;31849;55.992;37.252;2022-12-07T15:15:04;11.47;;;5.60;;
46110;SDS011;31849;55.992;37.252;2022-12-07T15:20:09;10.93;;;5.20;;
46110;SDS011;31849;55.992;37.252;2022-12-07T15:25:16;12.47;;;6.20;;
46110;SDS011;31849;55.992;37.252;2022-12-07T15:30:20;17.03;;;6.73;;
46110;SDS011;31849;55.992;37.252;2022-12-07T15:35:23;16.57;;;7.27;;
46110;SDS011;31849;55.992;37.252;2022-12-07T15:40:28;9.10;;;5.00;;
46110;SDS011;31849;55.992;37.252;2022-12-07T15:45:33;13.60;;;5.73;;
46110;SDS011;31849;55.992;37.252;2022-12-07T15:50:36;10.73;;;4.80;;
46110;SDS011;31849;55.992;37.252;2022-12-07T15:55:41;11.43;;;5.80;;
46110;SDS011;31849;55.992;37.252;2022-12-07T16:00:44;16.50;;;5.87;;
46110;SDS011;31849;55.992;37.252;2022-12-07T16:05:49;12.50;;;5.40;;
46110;SDS011;31849;55.992;37.252;2022-12-07T16:10:54;10.20;;;4.63;;
46110;SDS011;31849;55.992;37.252;2022-12-07T16:15:58;12.63;;;5.63;;
46110;SDS011;31849;55.992;37.252;2022-12-07T16:21:05;14.93;;;6.77;;
46110;SDS011;31849;55.992;37.252;2022-12-07T16:26:12;11.20;;;5.45;;
46110;SDS011;31849;55.992;37.252;2022-12-07T16:31:17;14.10;;;6.43;;
46110;SDS011;31849;55.992;37.252;2022-12-07T16:36:22;12.77;;;5.93;;
46110;SDS011;31849;55.992;37.252;2022-12-07T16:41:48;17.97;;;7.40;;
46110;SDS011;31849;55.992;37.252;2022-12-07T16:46:52;13.63;;;6.70;;
46110;SDS011;31849;55.992;37.252;2022-12-07T16:51:56;16.60;;;6.60;;
46110;SDS011;31849;55.992;37.252;2022-12-07T16:57:21;13.07;;;6.70;;
46110;SDS011;31849;55.992;37.252;2022-12-07T17:02:24;18.87;;;7.10;;
46110;SDS011;31849;55.992;37.252;2022-12-07T17:07:28;17.93;;;7.57;;
46110;SDS011;31849;55.992;37.252;2022-12-07T17:12:33;19.87;;;6.60;;
46110;SDS011;31849;55.992;37.252;2022-12-07T17:17:36;16.77;;;7.67;;
46110;SDS011;31849;55.992;37.252;2022-12-07T17:22:40;10.53;;;4.57;;
46110;SDS011;31849;55.992;37.252;2022-12-07T17:27:45;15.43;;;7.10;;
46110;SDS011;31849;55.992;37.252;2022-12-07T17:32:50;17.27;;;6.90;;
46110;SDS011;31849;55.992;37.252;2022-12-07T17:37:54;12.17;;;5.63;;
46110;SDS011;31849;55.992;37.252;2022-12-07T17:42:59;12.20;;;5.67;;
46110;SDS011;31849;55.992;37.252;2022-12-07T17:48:03;13.40;;;6.17;;
46110;SDS011;31849;55.992;37.252;2022-12-07T17:53:07;13.45;;;6.72;;
46110;SDS011;31849;55.992;37.252;2022-12-07T17:58:14;16.77;;;6.60;;
46110;SDS011;31849;55.992;37.252;2022-12-07T18:03:17;9.00;;;4.30;;
46110;SDS011;31849;55.992;37.252;2022-12-07T18:08:21;12.23;;;6.20;;
46110;SDS011;31849;55.992;37.252;2022-12-07T18:13:26;11.63;;;6.33;;
46110;SDS011;31849;55.992;37.252;2022-12-07T18:18:38;16.50;;;7.00;;
46110;SDS011;31849;55.992;37.252;2022-12-07T18:23:48;14.43;;;6.43;;
46110;SDS011;31849;55.992;37.252;2022-12-07T18:28:55;17.03;;;6.90;;
46110;SDS011;31849;55.992;37.252;2022-12-07T18:34:00;14.97;;;5.77;;
46110;SDS011;31849;55.992;37.252;2022-12-07T18:39:06;12.67;;;7.00;;
46110;SDS011;31849;55.992;37.252;2022-12-07T18:44:11;13.48;;;6.05;;
46110;SDS011;31849;55.992;37.252;2022-12-07T18:49:15;11.47;;;5.23;;
46110;SDS011;31849;55.992;37.252;2022-12-07T18:54:18;11.90;;;5.93;;
46110;SDS011;31849;55.992;37.252;2022-12-07T18:59:23;14.10;;;6.67;;
46110;SDS011;31849;55.992;37.252;2022-12-07T19:04:49;13.73;;;7.23;;
46110;SDS011;31849;55.992;37.252;2022-12-07T19:09:52;14.60;;;6.77;;
46110;SDS011;31849;55.992;37.252;2022-12-07T19:14:57;13.10;;;5.93;;
46110;SDS011;31849;55.992;37.252;2022-12-07T19:20:05;10.87;;;5.60;;
46110;SDS011;31849;55.992;37.252;2022-12-07T19:25:12;19.20;;;5.63;;
46110;SDS011;31849;55.992;37.252;2022-12-07T19:30:17;15.13;;;7.30;;
46110;SDS011;31849;55.992;37.252;2022-12-07T19:35:21;11.20;;;4.97;;
46110;SDS011;31849;55.992;37.252;2022-12-07T19:40:24;14.13;;;6.20;;
46110;SDS011;31849;55.992;37.252;2022-12-07T19:45:29;13.63;;;6.20;;
46110;SDS011;31849;55.992;37.252;2022-12-07T19:50:35;11.80;;;6.07;;
46110;SDS011;31849;55.992;37.252;2022-12-07T19:55:38;12.10;;;5.80;;
46110;SDS011;31849;55.992;37.252;2022-12-07T20:00:45;9.87;;;5.17;;
46110;SDS011;31849;55.992;37.252;2022-12-07T20:05:48;10.33;;;5.17;;
46110;SDS011;31849;55.992;37.252;2022-12-07T20:10:52;10.83;;;5.23;;
46110;SDS011;31849;55.992;37.252;2022-12-07T20:15:57;11.17;;;5.83;;
46110;SDS011;31849;55.992;37.252;2022-12-07T20:21:20;12.45;;;6.40;;
46110;SDS011;31849;55.992;37.252;2022-12-07T20:26:23;8.90;;;4.40;;
46110;SDS011;31849;55.992;37.252;2022-12-07T20:31:28;13.67;;;5.37;;
46110;SDS011;31849;55.992;37.252;2022-12-07T20:36:32;14.97;;;5.57;;
46110;SDS011;31849;55.992;37.252;2022-12-07T20:41:35;9.63;;;5.20;;
46110;SDS011;31849;55.992;37.252;2022-12-07T20:46:58;11.90;;;6.23;;
46110;SDS011;31849;55.992;37.252;2022-12-07T20:52:02;11.40;;;5.20;;
46110;SDS011;31849;55.992;37.252;2022-12-07T20:57:06;11.55;;;4.40;;
46110;SDS011;31849;55.992;37.252;2022-12-07T21:02:12;9.32;;;4.55;;
46110;SDS011;31849;55.992;37.252;2022-12-07T21:07:16;12.80;;;5.67;;
46110;SDS011;31849;55.992;37.252;2022-12-07T21:12:19;10.93;;;5.57;;
46110;SDS011;31849;55.992;37.252;2022-12-07T21:17:24;13.03;;;5.90;;
46110;SDS011;31849;55.992;37.252;2022-12-07T21:22:28;16.30;;;5.83;;
46110;SDS011;31849;55.992;37.252;2022-12-07T21:27:31;10.40;;;5.63;;
46110;SDS011;31849;55.992;37.252;2022-12-07T21:32:37;12.00;;;5.22;;
46110;SDS011;31849;55.992;37.252;2022-12-07T21:37:40;9.77;;;4.37;;
46110;SDS011;31849;55.992;37.252;2022-12-07T21:42:44;8.43;;;5.20;;
46110;SDS011;31849;55.992;37.252;2022-12-07T21:47:49;9.43;;;5.67;;
46110;SDS011;31849;55.992;37.252;2022-12-07T21:52:53;12.40;;;5.73;;
46110;SDS011;31849;55.992;37.252;2022-12-07T21:57:56;13.17;;;6.13;;
46110;SDS011;31849;55.992;37.252;2022-12-07T22:03:01;12.30;;;6.33;;
46110;SDS011;31849;55.992;37.252;2022-12-07T22:08:05;10.87;;;5.40;;
46110;SDS011;31849;55.992;37.252;2022-12-07T22:13:08;12.10;;;5.33;;
46110;SDS011;31849;55.992;37.252;2022-12-07T22:18:13;14.80;;;5.87;;
46110;SDS011;31849;55.992;37.252;2022-12-07T22:23:17;11.33;;;5.80;;
46110;SDS011;31849;55.992;37.252;2022-12-07T22:28:20;16.10;;;6.70;;
46110;SDS011;31849;55.992;37.252;2022-12-07T22:33:25;14.75;;;6.32;;
46110;SDS011;31849;55.992;37.252;2022-12-07T22:38:29;12.53;;;6.00;;
46110;SDS011;31849;55.992;37.252;2022-12-07T22:43:32;13.20;;;6.93;;
46110;SDS011;31849;55.992;37.252;2022-12-07T22:48:37;9.63;;;4.77;;
46110;SDS011;31849;55.992;37.252;2022-12-07T22:53:41;9.43;;;5.03;;
46110;SDS011;31849;55.992;37.252;2022-12-07T22:58:44;15.75;;;6.90;;
46110;SDS011;31849;55.992;37.252;2022-12-07T23:03:50;12.75;;;5.97;;
46110;SDS011;31849;55.992;37.252;2022-12-07T23:08:55;13.50;;;6.20;;
46110;SDS011;31849;55.992;37.252;2022-12-07T23:13:59;13.67;;;6.53;;
46110;SDS011;31849;55.992;37.252;2022-12-07T23:19:06;11.87;;;6.87;;
46110;SDS011;31849;55.992;37.252;2022-12-07T23:24:10;15.50;;;6.60;;
46110;SDS011;31849;55.992;37.252;2022-12-07T23:29:14;15.18;;;5.80;;
46110;SDS011;31849;55.992;37.252;2022-12-07T23:39:23;11.30;;;4.85;;
46110;SDS011;31849;55.992;37.252;2022-12-07T23:44:27;14.82;;;6.72;;
46110;SDS011;31849;55.992;37.252;2022-12-07T23:49:32;12.53;;;6.60;;
46110;SDS011;31849;55.992;37.252;2022-12-07T23:54:35;15.03;;;7.50;;
46110;SDS011;31849;55.992;37.252;2022-12-07T23:59:39;11.37;;;6.00;;
